Terminal Aerodrome Forecast
Issued by NWS

Home | Current Version | Previous Version | Text Only | Print | Product List | Glossary On
Versions: 1 2 3 4 5 6 7 8 9 10 11 12 13 14 15 16 17 18 19 20 21 22 23 24 25 26 27 28 29 30 31 32 33 34 35
000
FTUS43 KGLD 021456 AAA
TAFMCK
TAF AMD
KMCK 021456Z 0215/0312 19015KT P6SM SKC
     FM021800 16014G24KT P6SM SCT250
     FM030600 13009KT P6SM SCT100 WS020/19030KT
     FM031000 10006KT P6SM SCT250=

USA.gov is the U.S. government's official web portal to all federal, state and local government web resources and services.